Terminal Aerodrome Forecast
Issued by NWS Sioux Falls, SD

Home | Current Version | Previous Version | Graphics & Text | Print | Product List | Glossary On
Versions: 1 2 3 4 5 6 7 8 9 10 11 12 13
221
FTUS43 KFSD 061135
TAFHON
TAF
KHON 061135Z 0612/0712 19007KT P6SM FEW200
     FM061800 22009KT P6SM BKN150
     FM070000 25007KT P6SM BKN100
     FM070300 27015G23KT P6SM SCT150 WS010/30040KT
     FM070800 28018G29KT P6SM BKN200 WS010/30040KT=

USA.gov is the U.S. government's official web portal to all federal, state and local government web resources and services.